Time;durP1;ratioP1;P1;durP2;ratioP2;P2;SDS_P1;SDS_P2;PMS_P1;PMS_P2;Temp;Humidity;BMP_temperature;BMP_pressure;BME280_temperature;BME280_humidity;BME280_pressure;Samples;Min_cycle;Max_cycle;Signal;HPM_P1;HPM_P2
2023/01/16 00:01:55;;;;;;;4.32;1.00;;;4.70;99.90;;;;;;5049026;28;20516;-56
2023/01/16 00:04:21;;;;;;;5.75;2.42;;;4.80;99.90;;;;;;5048003;28;20041;-54
2023/01/16 00:06:47;;;;;;;8.18;1.30;;;4.80;99.90;;;;;;5048674;28;20032;-58
2023/01/16 00:09:13;;;;;;;13.68;2.33;;;4.90;99.90;;;;;;5049386;28;20037;-57
2023/01/16 00:11:38;;;;;;;6.33;1.30;;;4.90;99.90;;;;;;5049501;28;20122;-58
2023/01/16 00:14:04;;;;;;;3.90;1.10;;;4.90;99.90;;;;;;5048436;28;20044;-56
2023/01/16 00:16:30;;;;;;;8.60;0.98;;;5.00;99.90;;;;;;5048898;28;20029;-58
2023/01/16 00:18:55;;;;;;;6.07;1.27;;;5.00;99.90;;;;;;5048492;28;20041;-57
2023/01/16 00:21:25;;;;;;;9.53;1.47;;;5.10;99.90;;;;;;5049044;28;20025;-58
2023/01/16 00:23:56;;;;;;;4.53;1.15;;;5.10;99.90;;;;;;5048795;28;20040;-58
2023/01/16 00:26:23;;;;;;;6.00;1.40;;;5.10;99.90;;;;;;5048883;28;20048;-56
2023/01/16 00:28:49;;;;;;;2.25;0.70;;;5.10;99.90;;;;;;5048850;28;20405;-58
2023/01/16 00:31:15;;;;;;;12.95;1.35;;;5.20;99.90;;;;;;5049413;28;20135;-56
2023/01/16 00:33:42;;;;;;;6.40;0.63;;;5.20;99.90;;;;;;5048138;28;20141;-54
2023/01/16 00:36:08;;;;;;;2.15;0.88;;;5.20;99.90;;;;;;5049107;28;20268;-60
2023/01/16 00:38:34;;;;;;;;;;;5.20;99.90;;;;;;5047845;28;20045;-57
2023/01/16 00:41:00;;;;;;;5.90;0.70;;;5.20;99.90;;;;;;5049276;28;19923;-55
2023/01/16 00:43:25;;;;;;;6.80;1.00;;;5.20;99.90;;;;;;5048031;28;20037;-58
2023/01/16 00:45:51;;;;;;;5.60;1.13;;;5.20;99.90;;;;;;5048452;28;20383;-57
2023/01/16 00:48:17;;;;;;;5.13;1.20;;;5.10;99.90;;;;;;5049077;28;20045;-57
2023/01/16 00:50:42;;;;;;;7.23;1.10;;;5.20;99.90;;;;;;5052769;28;20041;-57
2023/01/16 00:53:08;;;;;;;9.23;0.93;;;5.20;99.90;;;;;;5050448;28;20453;-58
2023/01/16 00:55:36;;;;;;;11.07;1.50;;;5.10;99.90;;;;;;5052482;28;20032;-56
2023/01/16 00:58:04;;;;;;;4.88;0.85;;;5.20;99.90;;;;;;5052321;28;20033;-57
2023/01/16 01:00:30;;;;;;;9.75;1.58;;;5.20;99.90;;;;;;5052119;28;20075;-57
2023/01/16 01:02:55;;;;;;;4.50;0.77;;;5.20;99.90;;;;;;5051785;28;20119;-56
2023/01/16 01:05:21;;;;;;;5.47;0.50;;;5.20;99.90;;;;;;5051964;28;20183;-57
2023/01/16 01:07:47;;;;;;;7.32;1.02;;;5.20;99.90;;;;;;5051854;28;20458;-60
2023/01/16 01:10:12;;;;;;;9.83;0.90;;;5.20;99.90;;;;;;5052835;28;20040;-58
2023/01/16 01:12:38;;;;;;;6.13;1.20;;;5.20;99.90;;;;;;5051984;28;20490;-57
2023/01/16 01:15:04;;;;;;;2.20;0.60;;;5.20;99.90;;;;;;5050900;28;20040;-57
2023/01/16 01:17:30;;;;;;;;;;;5.30;99.90;;;;;;5051284;28;20041;-55
2023/01/16 01:19:55;;;;;;;5.72;0.98;;;5.30;99.90;;;;;;5051715;28;19920;-59
2023/01/16 01:22:22;;;;;;;5.63;1.37;;;5.30;99.90;;;;;;5052150;28;20033;-57
2023/01/16 01:24:48;;;;;;;5.43;0.80;;;5.30;99.90;;;;;;5050543;28;20163;-57
2023/01/16 01:27:18;;;;;;;2.75;0.95;;;5.30;99.90;;;;;;5051103;28;20045;-57
2023/01/16 01:29:43;;;;;;;6.55;2.22;;;5.30;99.90;;;;;;5051260;28;20052;-57
2023/01/16 01:32:09;;;;;;;6.60;1.17;;;5.30;99.90;;;;;;5051936;28;20044;-57
2023/01/16 01:34:35;;;;;;;5.93;1.02;;;5.30;99.90;;;;;;5043398;28;20041;-59
2023/01/16 01:37:03;;;;;;;5.85;1.88;;;5.30;99.90;;;;;;5051292;28;20036;-58
2023/01/16 01:39:29;;;;;;;4.82;1.20;;;5.30;99.90;;;;;;5051534;28;20083;-55
2023/01/16 01:42:41;;;;;;;4.68;1.08;;;5.30;99.90;;;;;;5046067;28;20046;-60
2023/01/16 01:44:49;;;;;;;2.67;0.60;;;5.30;99.90;;;;;;5039131;28;20509;-57
2023/01/16 01:47:19;;;;;;;2.63;0.70;;;5.30;99.90;;;;;;5051878;28;20041;-58
2023/01/16 01:49:45;;;;;;;10.55;1.02;;;5.30;99.90;;;;;;5051324;28;20040;-57
2023/01/16 01:52:11;;;;;;;5.25;0.70;;;5.30;99.90;;;;;;5050329;28;20045;-56
2023/01/16 01:54:42;;;;;;;7.10;0.73;;;5.30;99.90;;;;;;5050233;28;20073;-60
2023/01/16 01:57:18;;;;;;;5.65;0.60;;;5.30;99.90;;;;;;5051210;28;20048;-56
2023/01/16 01:59:54;;;;;;;6.90;1.20;;;5.30;99.90;;;;;;5050858;28;20037;-58
2023/01/16 02:02:23;;;;;;;5.18;1.40;;;5.30;99.90;;;;;;5051399;28;20049;-57
2023/01/16 02:04:56;;;;;;;11.20;1.30;;;5.30;99.90;;;;;;5050210;28;20045;-57
2023/01/16 02:07:23;;;;;;;5.25;0.70;;;5.30;99.90;;;;;;5049133;28;20048;-60
2023/01/16 02:09:49;;;;;;;;;;;5.30;99.90;;;;;;5052084;28;20072;-58
2023/01/16 02:12:17;;;;;;;4.63;1.02;;;5.30;99.90;;;;;;5051236;28;20417;-59
2023/01/16 02:14:45;;;;;;;3.72;0.98;;;5.30;99.90;;;;;;5050453;28;20514;-59
2023/01/16 02:20:21;;;;;;;8.27;0.90;;;5.30;99.90;;;;;;5051284;28;20072;-57
2023/01/16 02:23:37;;;;;;;2.67;0.70;;;5.30;99.90;;;;;;5031643;28;20443;-60
2023/01/16 02:26:03;;;;;;;5.60;0.77;;;5.30;99.90;;;;;;5013710;28;20060;-58
2023/01/16 02:28:58;;;;;;;11.13;1.20;;;5.30;99.90;;;;;;5050158;28;20045;-59
2023/01/16 02:31:51;;;;;;;6.43;2.42;;;5.30;99.90;;;;;;5051005;28;20041;-57
2023/01/16 02:34:41;;;;;;;2.92;1.15;;;5.20;99.90;;;;;;5049481;28;20056;-58
2023/01/16 02:37:45;;;;;;;3.42;0.88;;;5.20;99.90;;;;;;5050227;28;20398;-57
2023/01/16 02:40:16;;;;;;;4.18;1.30;;;5.20;99.90;;;;;;5051004;28;20485;-54
2023/01/16 02:43:03;;;;;;;5.13;0.90;;;5.20;99.90;;;;;;5049905;28;20383;-58
2023/01/16 02:45:52;;;;;;;4.13;0.70;;;5.20;99.90;;;;;;5050059;28;20159;-56
2023/01/16 02:48:37;;;;;;;4.45;1.38;;;5.20;99.90;;;;;;5049762;28;20071;-57
2023/01/16 02:51:06;;;;;;;3.42;1.08;;;5.20;99.90;;;;;;5040729;28;20115;-58
2023/01/16 02:53:52;;;;;;;5.70;0.70;;;5.20;99.90;;;;;;5049551;28;20041;-59
2023/01/16 02:56:26;;;;;;;3.70;1.20;;;5.20;99.90;;;;;;5040640;28;20450;-57
2023/01/16 02:58:52;;;;;;;5.07;1.50;;;5.20;99.90;;;;;;5043924;28;20051;-58
2023/01/16 03:01:19;;;;;;;8.55;2.00;;;5.20;99.90;;;;;;5049692;28;20509;-58
2023/01/16 03:03:53;;;;;;;6.78;1.13;;;5.20;99.90;;;;;;5049263;28;20322;-57
2023/01/16 03:06:37;;;;;;;7.22;1.63;;;5.10;99.90;;;;;;5050141;28;20045;-59
2023/01/16 03:09:23;;;;;;;2.75;1.38;;;5.10;99.90;;;;;;5048999;28;20525;-56
2023/01/16 03:12:10;;;;;;;3.45;1.48;;;5.10;99.90;;;;;;5049360;28;20049;-56
2023/01/16 03:14:44;;;;;;;5.43;1.33;;;5.10;99.90;;;;;;5049484;28;20406;-57
2023/01/16 03:17:30;;;;;;;2.60;1.48;;;5.10;99.90;;;;;;5049397;28;20075;-58
2023/01/16 03:20:12;;;;;;;3.78;1.83;;;5.00;99.90;;;;;;5050564;28;20076;-58
2023/01/16 03:22:50;;;;;;;3.13;2.03;;;5.10;99.90;;;;;;5050014;28;20033;-58
2023/01/16 03:25:34;;;;;;;2.92;2.50;;;5.00;99.90;;;;;;5049343;28;20047;-59
2023/01/16 03:28:25;;;;;;;2.95;2.63;;;5.00;99.90;;;;;;5048678;28;20040;-56
2023/01/16 03:31:16;;;;;;;10.52;4.13;;;5.00;99.90;;;;;;5050252;28;20048;-58
2023/01/16 03:34:08;;;;;;;6.28;3.92;;;5.00;99.90;;;;;;5047429;28;20060;-57
2023/01/16 03:36:42;;;;;;;6.22;4.13;;;4.90;99.90;;;;;;5049943;28;20037;-54
2023/01/16 03:39:10;;;;;;;6.47;5.45;;;4.90;99.90;;;;;;5048991;28;20051;-57
2023/01/16 03:41:39;;;;;;;4.90;4.50;;;4.90;99.90;;;;;;5049758;28;20118;-58
2023/01/16 03:44:11;;;;;;;7.47;5.70;;;4.80;99.90;;;;;;5048011;28;20049;-59
2023/01/16 03:46:49;;;;;;;9.77;5.22;;;4.80;99.90;;;;;;5049697;28;20040;-60
2023/01/16 03:49:22;;;;;;;10.65;5.30;;;4.70;99.90;;;;;;5047866;28;20058;-56
2023/01/16 03:51:59;;;;;;;11.80;6.28;;;4.70;99.90;;;;;;5050102;28;20045;-60
2023/01/16 03:54:24;;;;;;;;;;;4.70;99.90;;;;;;5048550;28;20087;-56
2023/01/16 03:57:16;;;;;;;10.80;7.30;;;4.70;99.90;;;;;;5049283;28;19921;-57
2023/01/16 03:59:44;;;;;;;11.73;7.85;;;4.70;99.90;;;;;;5042030;28;20518;-58
2023/01/16 04:02:25;;;;;;;14.43;8.73;;;4.70;99.90;;;;;;5049070;28;20037;-59
2023/01/16 04:05:13;;;;;;;14.57;8.43;;;4.70;99.90;;;;;;5048130;28;20119;-57
2023/01/16 04:07:53;;;;;;;13.73;9.73;;;4.70;99.90;;;;;;5047883;28;20044;-57
2023/01/16 04:10:24;;;;;;;11.73;9.00;;;4.60;99.90;;;;;;5048406;28;20040;-55
2023/01/16 04:12:56;;;;;;;13.98;10.25;;;4.60;99.90;;;;;;5048847;28;20054;-60
2023/01/16 04:15:25;;;;;;;11.95;9.43;;;4.60;99.90;;;;;;5048542;28;20616;-57
2023/01/16 04:17:51;;;;;;;14.48;10.45;;;4.60;99.90;;;;;;5048930;28;20037;-57
2023/01/16 04:20:17;;;;;;;13.82;9.90;;;4.60;99.90;;;;;;5048976;28;20048;-60
2023/01/16 04:22:48;;;;;;;13.15;9.25;;;4.50;99.90;;;;;;5050126;28;20033;-57
2023/01/16 04:25:14;;;;;;;16.20;9.90;;;4.50;99.90;;;;;;5052037;28;20037;-58
2023/01/16 04:27:40;;;;;;;16.63;9.93;;;4.50;99.90;;;;;;5052923;28;20043;-59
2023/01/16 04:30:07;;;;;;;12.43;8.40;;;4.50;99.90;;;;;;5052687;28;20041;-57
2023/01/16 04:32:32;;;;;;;;;;;4.60;99.90;;;;;;5053589;28;20524;-57
2023/01/16 04:34:58;;;;;;;9.48;6.78;;;4.60;99.90;;;;;;5052377;28;19917;-58
2023/01/16 04:37:23;;;;;;;12.37;6.90;;;4.60;99.90;;;;;;5052382;28;20048;-58
2023/01/16 04:39:49;;;;;;;12.77;6.80;;;4.60;99.90;;;;;;5053000;28;20037;-57
2023/01/16 04:42:15;;;;;;;12.98;7.38;;;4.60;99.90;;;;;;5053381;28;20490;-58
2023/01/16 04:44:42;;;;;;;14.23;6.85;;;4.60;99.90;;;;;;5051960;28;20041;-57
2023/01/16 04:47:07;;;;;;;9.60;6.03;;;4.60;99.90;;;;;;5052210;28;20053;-57
2023/01/16 04:49:33;;;;;;;9.10;5.55;;;4.60;99.90;;;;;;5051731;28;20048;-57
2023/01/16 04:51:59;;;;;;;8.63;5.67;;;4.50;99.90;;;;;;5052516;28;20074;-56
2023/01/16 04:54:24;;;;;;;15.83;5.70;;;4.40;99.90;;;;;;5052281;28;20099;-58
2023/01/16 04:56:50;;;;;;;9.90;5.33;;;4.40;99.90;;;;;;5050628;28;20043;-57
2023/01/16 04:59:15;;;;;;;7.27;6.50;;;4.40;99.90;;;;;;5052835;28;20274;-58
2023/01/16 05:01:42;;;;;;;14.90;5.83;;;4.30;99.90;;;;;;5052040;28;20040;-58
2023/01/16 05:04:09;;;;;;;8.45;5.43;;;4.30;99.90;;;;;;5051844;28;20040;-57
2023/01/16 05:06:35;;;;;;;9.40;5.18;;;4.20;99.90;;;;;;5051725;28;20128;-57
2023/01/16 05:09:03;;;;;;;9.05;4.97;;;4.20;99.90;;;;;;5052418;28;20037;-57
2023/01/16 05:11:29;;;;;;;6.95;4.72;;;4.10;99.90;;;;;;5052234;28;20060;-56
2023/01/16 05:13:54;;;;;;;5.03;4.50;;;4.10;99.90;;;;;;5051627;28;20072;-58
2023/01/16 05:16:20;;;;;;;11.20;4.95;;;4.10;99.90;;;;;;5043332;28;20359;-57
2023/01/16 05:18:45;;;;;;;16.17;6.60;;;4.10;99.90;;;;;;5052250;28;20095;-59
2023/01/16 05:21:11;;;;;;;10.50;4.67;;;4.00;99.90;;;;;;5051237;28;20033;-58
2023/01/16 05:23:37;;;;;;;8.33;5.33;;;4.00;99.90;;;;;;5051603;28;20112;-55
2023/01/16 05:26:04;;;;;;;9.23;4.20;;;4.00;99.90;;;;;;5052478;28;20040;-57
2023/01/16 05:28:30;;;;;;;8.65;5.03;;;3.90;99.90;;;;;;5051565;28;20087;-57
2023/01/16 05:30:56;;;;;;;9.43;4.80;;;3.90;99.90;;;;;;5052455;28;20041;-57
2023/01/16 05:33:22;;;;;;;16.25;4.90;;;3.90;99.90;;;;;;5050512;28;20045;-58
2023/01/16 05:35:48;;;;;;;11.13;4.28;;;3.90;99.90;;;;;;5050870;28;20547;-57
2023/01/16 05:38:14;;;;;;;9.80;4.70;;;3.90;99.90;;;;;;5051624;28;20099;-58
2023/01/16 05:40:40;;;;;;;8.27;4.57;;;3.90;99.90;;;;;;5051719;28;20279;-57
2023/01/16 05:43:05;;;;;;;6.78;5.20;;;3.90;99.90;;;;;;5050719;28;20051;-57
2023/01/16 05:45:31;;;;;;;6.70;4.50;;;3.90;99.90;;;;;;5051354;28;20037;-58
2023/01/16 05:47:57;;;;;;;12.90;4.13;;;3.90;99.90;;;;;;5050864;28;20068;-57
2023/01/16 05:50:23;;;;;;;8.38;3.40;;;3.90;99.90;;;;;;5051851;28;20072;-57
2023/01/16 05:52:49;;;;;;;13.20;4.60;;;3.90;99.90;;;;;;5051403;28;20521;-59
2023/01/16 05:55:15;;;;;;;6.25;4.43;;;3.90;99.90;;;;;;5049711;28;20048;-57
2023/01/16 05:57:41;;;;;;;7.53;4.80;;;3.90;99.90;;;;;;5050703;28;20037;-57
2023/01/16 06:00:07;;;;;;;6.40;4.10;;;3.90;99.90;;;;;;5052028;28;20174;-54
2023/01/16 06:02:32;;;;;;;7.97;4.47;;;3.90;99.90;;;;;;5051379;28;20072;-56
2023/01/16 06:04:58;;;;;;;13.27;4.43;;;3.90;99.90;;;;;;5050153;28;20130;-58
2023/01/16 06:07:24;;;;;;;14.90;5.63;;;3.90;99.90;;;;;;5051103;28;20542;-56
2023/01/16 06:09:49;;;;;;;8.93;4.63;;;3.80;99.90;;;;;;5051189;28;20044;-57
2023/01/16 06:12:17;;;;;;;6.67;4.60;;;3.80;99.90;;;;;;5051301;28;20114;-57
2023/01/16 06:14:43;;;;;;;13.07;4.57;;;3.80;99.90;;;;;;5049427;28;20498;-58
2023/01/16 06:17:09;;;;;;;9.65;3.80;;;3.80;99.90;;;;;;5050094;28;20079;-57
2023/01/16 06:19:34;;;;;;;10.27;4.35;;;3.80;99.90;;;;;;5050606;28;20489;-56
2023/01/16 06:22:00;;;;;;;9.17;4.33;;;3.80;99.90;;;;;;5049755;28;20044;-58
2023/01/16 06:24:25;;;;;;;7.20;3.60;;;3.80;99.90;;;;;;5049648;28;20501;-58
2023/01/16 06:26:51;;;;;;;10.83;4.30;;;3.70;99.90;;;;;;5050355;28;20049;-58
2023/01/16 06:29:17;;;;;;;9.68;4.10;;;3.70;99.90;;;;;;5046906;28;20489;-57
2023/01/16 06:31:42;;;;;;;13.93;3.90;;;3.70;99.90;;;;;;5051325;28;20040;-56
2023/01/16 06:34:08;;;;;;;8.63;4.07;;;3.70;99.90;;;;;;5049446;28;20045;-58
2023/01/16 06:36:34;;;;;;;14.02;4.63;;;3.70;99.90;;;;;;5050923;28;20581;-58
2023/01/16 06:38:59;;;;;;;7.30;4.27;;;3.70;99.90;;;;;;5050363;28;20037;-56
2023/01/16 06:41:25;;;;;;;11.87;3.93;;;3.70;99.90;;;;;;5051153;28;20139;-59
2023/01/16 06:43:50;;;;;;;7.33;3.50;;;3.70;99.90;;;;;;5049452;28;20521;-57
2023/01/16 06:46:16;;;;;;;7.77;3.00;;;3.70;99.90;;;;;;5050000;28;20401;-59
2023/01/16 06:48:42;;;;;;;7.77;3.23;;;3.60;99.90;;;;;;5050199;28;20051;-57
2023/01/16 06:51:09;;;;;;;12.03;3.80;;;3.70;99.90;;;;;;5050552;28;20041;-55
2023/01/16 06:53:35;;;;;;;8.35;3.38;;;3.70;99.90;;;;;;5050356;28;20313;-56
2023/01/16 06:56:01;;;;;;;10.60;3.30;;;3.70;99.90;;;;;;5050073;28;20052;-56
2023/01/16 06:58:27;;;;;;;8.60;3.63;;;3.70;99.90;;;;;;5050309;28;20371;-55
2023/01/16 07:00:53;;;;;;;8.17;3.77;;;3.70;99.90;;;;;;5050237;28;20044;-55
2023/01/16 07:03:20;;;;;;;;;;;3.70;99.90;;;;;;5050608;28;20073;-56
2023/01/16 07:05:46;;;;;;;9.27;3.72;;;3.80;99.90;;;;;;5049886;28;19947;-54
2023/01/16 07:08:13;;;;;;;9.75;3.25;;;3.70;99.90;;;;;;5050139;28;20498;-56
2023/01/16 07:10:38;;;;;;;10.95;4.68;;;3.70;99.90;;;;;;5049347;28;20557;-53
2023/01/16 07:13:04;;;;;;;11.77;4.55;;;3.70;99.90;;;;;;5049147;28;20120;-56
2023/01/16 07:23:51;;;;;;;14.20;5.05;;;3.70;99.90;;;;;;5040503;28;20056;-55
2023/01/16 07:26:19;;;;;;;10.70;5.20;;;3.60;99.90;;;;;;5049475;28;20123;-55
2023/01/16 07:28:47;;;;;;;10.63;4.90;;;3.60;99.90;;;;;;5049800;28;20091;-56
2023/01/16 07:31:13;;;;;;;13.65;5.30;;;3.60;99.90;;;;;;5049596;28;20082;-55
2023/01/16 07:33:39;;;;;;;;;;;3.60;99.90;;;;;;5049643;28;20398;-54
2023/01/16 07:36:05;;;;;;;13.68;4.80;;;3.60;99.90;;;;;;5049167;28;19921;-57
2023/01/16 07:38:30;;;;;;;18.67;5.50;;;3.60;99.90;;;;;;5048965;28;20033;-55
2023/01/16 07:40:56;;;;;;;9.80;4.67;;;3.60;99.90;;;;;;5050365;28;20106;-56
2023/01/16 07:43:21;;;;;;;11.10;5.03;;;3.70;99.90;;;;;;5048081;28;20119;-56
2023/01/16 07:45:52;;;;;;;10.73;5.77;;;3.60;99.90;;;;;;5049679;28;20291;-54
2023/01/16 07:48:19;;;;;;;8.35;4.65;;;3.60;99.90;;;;;;5047815;28;20094;-57
2023/01/16 07:50:52;;;;;;;10.88;5.07;;;3.60;99.90;;;;;;5049854;28;20048;-55
2023/01/16 07:53:21;;;;;;;12.80;5.75;;;3.70;99.90;;;;;;5045758;28;20156;-53
2023/01/16 07:55:52;;;;;;;7.47;5.13;;;3.70;99.90;;;;;;5049256;28;20036;-55
2023/01/16 07:58:18;;;;;;;14.88;6.00;;;3.70;99.90;;;;;;5047206;28;20063;-57
2023/01/16 08:00:44;;;;;;;15.52;4.70;;;3.70;99.90;;;;;;5049907;28;20041;-55
2023/01/16 08:03:10;;;;;;;6.35;4.28;;;3.70;99.90;;;;;;5048377;28;20106;-56
2023/01/16 08:05:36;;;;;;;10.02;4.10;;;3.80;99.90;;;;;;5047749;28;20460;-54
2023/01/16 08:08:02;;;;;;;13.27;4.40;;;3.80;99.90;;;;;;5048379;28;20140;-54
2023/01/16 08:10:27;;;;;;;10.10;4.07;;;3.90;99.90;;;;;;5049223;28;20314;-55
2023/01/16 08:12:53;;;;;;;6.97;3.60;;;3.90;99.90;;;;;;5048133;28;20131;-52
2023/01/16 08:15:18;;;;;;;10.17;3.87;;;4.00;99.90;;;;;;5048696;28;20041;-53
2023/01/16 08:17:44;;;;;;;7.13;3.13;;;4.00;99.90;;;;;;5047970;28;20551;-56
2023/01/16 08:20:11;;;;;;;6.80;3.35;;;4.00;99.90;;;;;;5048978;28;20044;-56
2023/01/16 08:22:44;;;;;;;;;;;4.00;99.90;;;;;;5048909;28;20045;-56
2023/01/16 08:25:10;;;;;;;4.72;2.55;;;4.10;99.90;;;;;;5047676;28;20373;-52
2023/01/16 08:27:36;;;;;;;5.55;2.60;;;4.10;99.90;;;;;;5047934;28;20253;-55
2023/01/16 08:30:02;;;;;;;13.03;3.00;;;4.10;99.90;;;;;;5049266;28;20040;-55
2023/01/16 08:32:27;;;;;;;4.85;1.73;;;4.10;99.90;;;;;;5048662;28;20041;-54
2023/01/16 08:34:53;;;;;;;11.73;2.17;;;4.10;99.90;;;;;;5047653;28;20506;-53
2023/01/16 08:37:18;;;;;;;7.43;2.20;;;4.20;99.90;;;;;;5048891;28;20033;-53
2023/01/16 08:39:44;;;;;;;6.77;1.77;;;4.20;99.90;;;;;;5049330;28;20102;-56
2023/01/16 08:53:07;;;;;;;7.00;1.67;;;4.30;99.90;;;;;;5045193;28;20057;-51
2023/01/16 08:55:32;;;;;;;2.67;2.10;;;4.30;99.90;;;;;;5048105;28;20097;-56
2023/01/16 08:57:58;;;;;;;9.13;1.90;;;4.30;99.90;;;;;;5048432;28;20544;-56
2023/01/16 09:00:26;;;;;;;3.90;1.50;;;4.30;99.90;;;;;;5048448;28;20075;-55
2023/01/16 09:02:52;;;;;;;5.43;1.92;;;4.30;99.90;;;;;;5047949;28;20563;-55
2023/01/16 09:05:18;;;;;;;6.07;1.63;;;4.30;99.90;;;;;;5063436;28;20410;-54
2023/01/16 09:07:44;;;;;;;2.40;1.50;;;4.30;99.90;;;;;;5047720;28;20029;-54
2023/01/16 09:10:11;;;;;;;5.00;1.27;;;4.30;99.90;;;;;;5050840;28;20039;-56
2023/01/16 09:15:21;;;;;;;7.78;1.83;;;4.30;99.90;;;;;;5049036;28;20112;-55
2023/01/16 09:17:46;;;;;;;4.77;1.90;;;4.20;99.90;;;;;;5051504;28;20112;-54
2023/01/16 09:20:12;;;;;;;6.40;1.80;;;4.30;99.90;;;;;;5050053;28;20061;-55
2023/01/16 09:22:38;;;;;;;2.77;1.20;;;4.30;99.90;;;;;;5047944;28;20039;-56
2023/01/16 09:25:04;;;;;;;3.37;0.97;;;4.30;99.90;;;;;;5063476;28;20256;-55
2023/01/16 09:27:29;;;;;;;3.50;1.23;;;4.30;99.90;;;;;;5051299;28;20513;-55
2023/01/16 09:29:55;;;;;;;3.77;1.17;;;4.30;99.90;;;;;;5051888;28;20037;-56
2023/01/16 09:32:20;;;;;;;3.40;1.40;;;4.30;99.90;;;;;;5032264;28;20171;-56
2023/01/16 09:34:46;;;;;;;2.63;2.00;;;4.30;99.90;;;;;;5032716;28;20106;-56
2023/01/16 09:37:12;;;;;;;1.47;0.60;;;4.30;99.90;;;;;;5050633;28;20068;-54
2023/01/16 09:39:38;;;;;;;5.25;1.02;;;4.30;99.90;;;;;;5052050;28;20317;-55
2023/01/16 09:45:14;;;;;;;;;;;4.40;99.90;;;;;;5050627;28;20044;-56
2023/01/16 09:47:41;;;;;;;;;;;4.40;99.90;;;;;;5051053;28;19916;-56
2023/01/16 09:50:30;;;;;;;3.95;0.93;;;4.40;99.90;;;;;;5051830;28;19917;-55
2023/01/16 09:58:37;;;;;;;3.30;0.80;;;4.40;99.90;;;;;;5047810;28;21309;-54
2023/01/16 10:01:10;;;;;;;1.77;0.55;;;4.40;99.90;;;;;;5050263;28;20033;-55
2023/01/16 10:03:42;;;;;;;3.65;0.57;;;4.40;99.90;;;;;;5049738;28;20449;-56
2023/01/16 10:06:26;;;;;;;4.47;0.65;;;4.40;99.90;;;;;;5047882;28;20045;-57
2023/01/16 10:09:12;;;;;;;5.57;0.90;;;4.40;99.90;;;;;;5049119;28;20041;-59
2023/01/16 10:11:47;;;;;;;1.88;0.70;;;4.40;99.90;;;;;;5050335;28;20062;-56
2023/01/16 10:14:51;;;;;;;3.50;0.88;;;4.40;99.90;;;;;;5050012;28;20501;-58
2023/01/16 10:18:04;;;;;;;1.73;0.95;;;4.40;99.90;;;;;;5050319;28;20095;-58
2023/01/16 10:20:55;;;;;;;2.67;0.60;;;4.40;99.90;;;;;;5028858;28;20048;-57
2023/01/16 10:23:58;;;;;;;1.10;0.50;;;4.40;99.90;;;;;;5047713;28;20036;-56
2023/01/16 10:26:38;;;;;;;3.60;1.17;;;4.30;99.90;;;;;;5052780;28;20037;-58
2023/01/16 10:29:18;;;;;;;2.78;0.75;;;4.30;99.90;;;;;;5049515;28;20037;-57
2023/01/16 10:32:24;;;;;;;8.60;1.35;;;4.30;99.90;;;;;;5050896;28;20502;-57
2023/01/16 10:35:06;;;;;;;1.35;0.63;;;4.30;99.90;;;;;;5047322;28;20510;-55
2023/01/16 10:37:35;;;;;;;1.95;1.02;;;4.30;99.90;;;;;;5051449;28;20033;-57
2023/01/16 10:40:16;;;;;;;3.30;0.98;;;4.30;99.90;;;;;;5049103;28;20128;-58
2023/01/16 10:51:02;;;;;;;4.38;1.20;;;4.30;99.90;;;;;;5051016;28;20045;-56
2023/01/16 10:53:29;;;;;;;3.08;1.20;;;4.30;99.90;;;;;;5051312;28;20048;-57
2023/01/16 10:55:56;;;;;;;3.42;1.00;;;4.30;99.90;;;;;;5042026;28;20082;-58
2023/01/16 10:58:36;;;;;;;2.00;1.27;;;4.30;99.90;;;;;;5048260;28;20078;-57
2023/01/16 11:01:19;;;;;;;5.70;1.23;;;4.30;99.90;;;;;;5050874;28;20421;-57
2023/01/16 11:03:53;;;;;;;4.28;1.48;;;4.30;99.90;;;;;;5050501;28;20090;-56
2023/01/16 11:06:24;;;;;;;2.00;1.10;;;4.30;99.90;;;;;;5050754;28;20043;-58
2023/01/16 11:08:59;;;;;;;1.83;1.08;;;4.30;99.90;;;;;;5050145;28;20128;-58
2023/01/16 11:19:59;;;;;;;2.55;0.90;;;4.30;99.90;;;;;;5052972;28;20064;-58
2023/01/16 11:22:27;;;;;;;2.28;1.60;;;4.30;99.90;;;;;;5051996;28;20065;-57
2023/01/16 11:25:04;;;;;;;2.42;1.55;;;4.30;99.90;;;;;;5051371;28;20504;-57
2023/01/16 11:27:32;;;;;;;;;;;4.30;99.90;;;;;;5050836;28;20040;-56
2023/01/16 11:29:58;;;;;;;4.55;1.10;;;4.30;99.90;;;;;;5051083;28;20587;-54
2023/01/16 11:32:27;;;;;;;4.07;1.27;;;4.30;99.90;;;;;;5048572;28;20052;-57
2023/01/16 11:34:56;;;;;;;2.53;0.90;;;4.40;99.90;;;;;;5053408;28;20029;-57
2023/01/16 11:37:22;;;;;;;2.35;0.95;;;4.40;99.90;;;;;;5049650;28;20413;-58
2023/01/16 11:39:53;;;;;;;1.48;1.25;;;4.40;99.90;;;;;;5049652;28;20455;-58
2023/01/16 11:48:23;;;;;;;8.38;1.63;;;4.50;99.90;;;;;;5049344;28;20037;-57
2023/01/16 11:50:57;;;;;;;1.85;1.08;;;4.50;99.90;;;;;;5051951;28;20036;-58
2023/01/16 11:53:31;;;;;;;2.95;1.38;;;4.50;99.90;;;;;;5049333;28;20045;-54
2023/01/16 11:56:11;;;;;;;4.10;1.20;;;4.60;99.90;;;;;;5048293;28;20048;-55
2023/01/16 11:58:47;;;;;;;5.93;1.40;;;4.60;99.90;;;;;;5047998;28;20493;-58
2023/01/16 12:02:15;;;;;;;2.93;0.90;;;4.60;99.90;;;;;;5053407;28;20163;-58
2023/01/16 12:04:25;;;;;;;7.30;1.17;;;4.60;99.90;;;;;;5045622;28;20520;-57
2023/01/16 12:07:00;;;;;;;;;;;4.70;99.90;;;;;;5050920;28;20037;-57
2023/01/16 12:10:01;;;;;;;1.77;0.80;;;4.70;99.90;;;;;;5044336;28;19921;-58
2023/01/16 12:15:35;;;;;;;3.20;1.13;;;4.70;99.90;;;;;;5048015;28;20481;-55
2023/01/16 12:18:28;;;;;;;2.63;1.38;;;4.70;99.90;;;;;;5049936;28;20514;-54
2023/01/16 12:21:01;;;;;;;2.90;1.00;;;4.80;99.90;;;;;;5048184;28;20086;-57
2023/01/16 12:23:57;;;;;;;4.20;1.20;;;4.80;99.90;;;;;;5047197;28;20037;-55
2023/01/16 12:26:28;;;;;;;3.35;1.40;;;4.80;99.90;;;;;;5043514;28;20037;-58
2023/01/16 12:29:00;;;;;;;5.20;1.80;;;4.80;99.90;;;;;;5050826;28;20044;-57
2023/01/16 12:31:51;;;;;;;4.13;0.98;;;4.70;99.90;;;;;;5045571;28;20045;-57
2023/01/16 12:34:38;;;;;;;7.53;1.10;;;4.80;99.90;;;;;;5046277;28;20052;-58
2023/01/16 12:37:28;;;;;;;3.90;1.88;;;4.80;99.90;;;;;;5049300;28;20040;-58
2023/01/16 12:40:13;;;;;;;4.93;1.73;;;4.80;99.90;;;;;;5050555;28;20037;-57
2023/01/16 12:43:18;;;;;;;3.78;1.55;;;4.80;99.90;;;;;;5041966;28;20049;-58
2023/01/16 12:45:57;;;;;;;1.75;0.88;;;4.80;99.90;;;;;;5053486;28;20436;-58
2023/01/16 12:48:56;;;;;;;7.63;3.15;;;4.80;99.90;;;;;;5052625;28;20086;-58
2023/01/16 12:51:27;;;;;;;4.53;1.33;;;4.80;99.90;;;;;;5054321;28;20041;-56
2023/01/16 12:54:11;;;;;;;2.90;1.27;;;4.90;99.90;;;;;;5053746;28;20090;-58
2023/01/16 12:57:01;;;;;;;1.70;0.98;;;4.90;99.90;;;;;;5052540;28;20107;-56
2023/01/16 12:59:34;;;;;;;2.88;1.40;;;4.90;99.90;;;;;;5049391;28;20041;-58
2023/01/16 13:02:09;;;;;;;2.33;1.02;;;4.90;99.90;;;;;;5055299;28;20044;-57
2023/01/16 13:04:42;;;;;;;1.00;0.82;;;4.90;99.90;;;;;;5050386;28;20043;-57
2023/01/16 13:07:14;;;;;;;2.25;0.80;;;4.90;99.90;;;;;;5051976;28;20094;-58
2023/01/16 13:13:20;;;;;;;3.38;0.80;;;4.90;99.90;;;;;;5052594;28;20041;-58
2023/01/16 13:15:36;;;;;;;3.38;0.50;;;5.20;99.90;;;;;;5052346;28;20037;-58
2023/01/16 13:18:17;;;;;;;3.10;0.80;;;5.40;99.90;;;;;;5051814;28;20040;-58
2023/01/16 13:20:45;;;;;;;3.40;0.68;;;5.40;99.90;;;;;;5054131;28;20096;-58
2023/01/16 13:23:16;;;;;;;0.70;0.30;;;5.40;99.90;;;;;;5052036;28;20067;-57
2023/01/16 13:25:47;;;;;;;1.55;0.80;;;5.40;99.90;;;;;;5051929;28;20044;-57
2023/01/16 13:28:25;;;;;;;5.15;0.82;;;5.40;99.90;;;;;;5052412;28;20117;-56
2023/01/16 13:30:56;;;;;;;;;;;5.40;99.90;;;;;;5055246;28;20608;-59
2023/01/16 13:33:27;;;;;;;1.35;0.50;;;5.40;99.90;;;;;;5049670;28;19974;-59
2023/01/16 13:36:13;;;;;;;2.15;0.40;;;5.30;99.90;;;;;;5050429;28;20040;-59
2023/01/16 13:39:02;;;;;;;1.02;0.52;;;5.30;99.90;;;;;;5052009;28;20222;-58
2023/01/16 13:41:44;;;;;;;1.38;0.70;;;5.30;99.90;;;;;;5051877;28;20028;-57
2023/01/16 13:47:39;;;;;;;1.00;0.55;;;5.20;99.90;;;;;;5034863;28;20127;-57
2023/01/16 13:50:22;;;;;;;4.80;0.63;;;5.20;99.90;;;;;;5053482;28;20066;-58
2023/01/16 13:52:48;;;;;;;3.40;0.65;;;5.20;99.90;;;;;;5050272;28;21167;-55
2023/01/16 13:55:29;;;;;;;2.08;0.43;;;5.20;99.90;;;;;;5048961;28;20509;-58
2023/01/16 13:58:15;;;;;;;2.38;0.40;;;5.30;99.90;;;;;;5051886;28;20032;-57
2023/01/16 14:00:41;;;;;;;3.42;0.43;;;5.30;99.90;;;;;;5056056;28;20126;-56
2023/01/16 14:03:28;;;;;;;3.72;0.93;;;5.30;99.90;;;;;;5043413;28;20045;-58
2023/01/16 14:06:19;;;;;;;1.92;0.50;;;5.30;99.90;;;;;;5028155;28;20143;-57
2023/01/16 14:09:10;;;;;;;1.33;0.60;;;5.30;99.90;;;;;;5046608;28;20564;-55
2023/01/16 14:11:57;;;;;;;1.65;0.80;;;5.30;99.90;;;;;;5051298;28;20637;-55
2023/01/16 14:17:11;;;;;;;1.42;0.55;;;5.30;99.90;;;;;;5048572;28;20048;-54
2023/01/16 14:19:51;;;;;;;1.52;0.55;;;5.30;99.90;;;;;;5046872;28;20048;-56
2023/01/16 14:25:18;;;;;;;0.70;0.40;;;5.40;99.90;;;;;;5040614;28;20124;-57
2023/01/16 14:27:50;;;;;;;3.28;0.50;;;5.30;99.90;;;;;;5048247;28;20048;-56
2023/01/16 14:30:28;;;;;;;2.22;0.50;;;5.40;99.90;;;;;;5046525;28;20047;-54
2023/01/16 14:32:57;;;;;;;3.05;0.63;;;5.30;99.90;;;;;;5050317;28;20552;-56
2023/01/16 14:35:27;;;;;;;3.83;0.63;;;5.30;99.90;;;;;;5038395;28;20147;-55